createdAt,value
2022-11-29T00:01:26.016Z,9.29
2022-11-29T00:03:53.154Z,9.23
2022-11-29T00:06:29.954Z,9.22
2022-11-29T00:09:01.558Z,9.20
2022-11-29T00:11:52.212Z,9.21
2022-11-29T00:14:19.914Z,9.20
2022-11-29T00:16:51.773Z,9.23
2022-11-29T00:19:18.306Z,9.22
2022-11-29T00:21:44.938Z,9.24
2022-11-29T00:24:11.433Z,9.25
2022-11-29T00:26:38.122Z,9.26
2022-11-29T00:29:05.139Z,9.28
2022-11-29T00:31:32.684Z,9.28
2022-11-29T00:34:01.314Z,9.28
2022-11-29T00:36:28.133Z,9.26
2022-11-29T00:38:54.585Z,9.24
2022-11-29T00:41:21.166Z,9.25
2022-11-29T00:43:47.813Z,9.26
2022-11-29T00:46:14.250Z,9.27
2022-11-29T00:48:40.745Z,9.25
2022-11-29T00:51:07.685Z,9.25
2022-11-29T00:53:35.244Z,9.24
2022-11-29T00:56:02.674Z,9.26
2022-11-29T00:58:29.896Z,9.27
2022-11-29T01:00:56.617Z,9.28
2022-11-29T01:03:23.661Z,9.28
2022-11-29T01:05:50.915Z,9.27
2022-11-29T01:08:17.885Z,9.28
2022-11-29T01:10:44.655Z,9.28
2022-11-29T01:13:11.808Z,9.28
2022-11-29T01:15:38.188Z,9.29
2022-11-29T01:18:04.784Z,9.31
2022-11-29T01:20:31.341Z,9.30
2022-11-29T01:22:58.139Z,9.31
2022-11-29T01:25:24.550Z,9.30
2022-11-29T01:27:50.916Z,9.32
2022-11-29T01:30:17.354Z,9.31
2022-11-29T01:32:43.697Z,9.29
2022-11-29T01:35:10.092Z,9.30
2022-11-29T01:37:36.484Z,9.31
2022-11-29T01:40:03.913Z,9.32
2022-11-29T01:42:30.258Z,9.31
2022-11-29T01:45:03.997Z,9.30
2022-11-29T01:47:31.227Z,9.30
2022-11-29T01:49:58.657Z,9.28
2022-11-29T01:52:32.233Z,9.25
2022-11-29T01:55:02.962Z,9.27
2022-11-29T01:57:30.952Z,9.27
2022-11-29T02:00:04.126Z,9.27
2022-11-29T02:02:44.781Z,9.28
2022-11-29T02:05:14.806Z,9.27
2022-11-29T02:07:45.671Z,9.25
2022-11-29T02:10:13.307Z,9.23
2022-11-29T02:13:11.007Z,9.21
2022-11-29T02:15:50.973Z,9.23
2022-11-29T02:18:54.123Z,9.22
2022-11-29T02:21:31.417Z,9.23
2022-11-29T02:24:35.291Z,9.25
2022-11-29T02:27:17.471Z,9.23
2022-11-29T02:29:46.483Z,9.22
2022-11-29T02:32:28.102Z,9.22
2022-11-29T02:35:13.286Z,9.21
2022-11-29T02:37:50.701Z,9.21
2022-11-29T02:40:24.322Z,9.18
2022-11-29T02:43:19.440Z,9.17
2022-11-29T02:46:12.241Z,9.13
2022-11-29T02:49:26.171Z,9.11
2022-11-29T02:52:00.450Z,9.11
2022-11-29T02:54:50.095Z,9.10
2022-11-29T02:57:37.267Z,9.11
2022-11-29T03:00:14.693Z,9.11
2022-11-29T03:03:03.785Z,9.11
2022-11-29T03:06:07.942Z,9.09
2022-11-29T03:08:46.085Z,9.07
2022-11-29T03:11:49.789Z,9.06
2022-11-29T03:14:25.879Z,9.04
2022-11-29T03:17:11.295Z,9.03
2022-11-29T03:20:15.377Z,9.01
2022-11-29T03:23:09.686Z,9.00
2022-11-29T03:25:42.168Z,8.99
2022-11-29T03:28:18.727Z,8.98
2022-11-29T03:30:56.611Z,8.98
2022-11-29T03:33:52.411Z,8.96
2022-11-29T03:36:39.845Z,8.94
2022-11-29T03:39:11.064Z,8.91
2022-11-29T03:41:48.788Z,8.89
2022-11-29T03:44:26.728Z,8.87
2022-11-29T03:47:14.416Z,8.84
2022-11-29T03:49:48.252Z,8.83
2022-11-29T03:52:24.107Z,8.84
2022-11-29T03:55:17.411Z,8.85
2022-11-29T03:58:02.018Z,8.87
2022-11-29T04:00:44.690Z,8.86
2022-11-29T04:03:48.261Z,8.85
2022-11-29T04:06:24.082Z,8.85
2022-11-29T04:09:26.704Z,8.84
2022-11-29T04:12:14.245Z,8.83
2022-11-29T04:14:58.767Z,8.81
2022-11-29T04:17:43.886Z,8.81
2022-11-29T04:20:27.897Z,8.80
2022-11-29T04:23:24.687Z,8.79
2022-11-29T04:26:25.018Z,8.79
2022-11-29T04:29:15.422Z,8.77
2022-11-29T04:31:57.639Z,8.76
2022-11-29T04:34:43.198Z,8.75
2022-11-29T04:37:29.764Z,8.73
2022-11-29T04:40:06.097Z,8.71
2022-11-29T04:42:54.358Z,8.70
2022-11-29T04:45:36.337Z,8.70
2022-11-29T04:48:27.428Z,8.69
2022-11-29T04:51:21.361Z,8.68
2022-11-29T04:54:15.359Z,8.68
2022-11-29T04:56:49.869Z,8.64
2022-11-29T04:59:34.304Z,8.63
2022-11-29T05:02:07.949Z,8.62
2022-11-29T05:04:50.608Z,8.61
2022-11-29T05:07:29.055Z,8.60
2022-11-29T05:10:23.695Z,8.61
2022-11-29T05:13:12.892Z,8.59
2022-11-29T05:16:00.097Z,8.60
2022-11-29T05:18:53.894Z,8.60
2022-11-29T05:21:33.814Z,8.59
2022-11-29T05:24:34.052Z,8.56
2022-11-29T05:27:42.238Z,8.56
2022-11-29T05:30:18.273Z,8.56
2022-11-29T05:32:53.264Z,8.56
2022-11-29T05:35:53.830Z,8.55
2022-11-29T05:38:30.404Z,8.57
2022-11-29T05:41:15.248Z,8.58
2022-11-29T05:44:00.362Z,8.58
2022-11-29T05:46:42.874Z,8.58
2022-11-29T05:49:23.939Z,8.54
2022-11-29T05:52:24.238Z,8.50
2022-11-29T05:55:05.060Z,8.50
2022-11-29T05:57:42.503Z,8.49
2022-11-29T06:00:14.500Z,8.49
2022-11-29T06:02:53.905Z,8.48
2022-11-29T06:05:42.216Z,8.44
2022-11-29T06:08:17.844Z,8.45
2022-11-29T06:11:01.423Z,8.46
2022-11-29T06:13:50.886Z,8.45
2022-11-29T06:16:35.392Z,8.46
2022-11-29T06:19:30.107Z,8.45
2022-11-29T06:22:31.985Z,8.41
2022-11-29T06:25:17.195Z,8.40
2022-11-29T06:27:59.048Z,8.40
2022-11-29T06:30:51.678Z,8.40
2022-11-29T06:33:24.007Z,8.43
2022-11-29T06:36:01.008Z,8.39
2022-11-29T06:38:29.923Z,8.36
2022-11-29T06:41:01.779Z,8.32
2022-11-29T06:43:29.543Z,8.31
2022-11-29T06:46:31.647Z,8.26
2022-11-29T06:49:33.315Z,8.26
2022-11-29T06:52:27.060Z,8.28
2022-11-29T06:55:03.698Z,8.23
2022-11-29T06:57:57.579Z,8.24
2022-11-29T07:00:28.151Z,8.24
2022-11-29T07:03:19.278Z,8.24
2022-11-29T07:05:46.730Z,8.18
2022-11-29T07:08:21.344Z,8.15
2022-11-29T07:10:50.965Z,8.15
2022-11-29T07:13:18.789Z,8.13
2022-11-29T07:15:56.362Z,8.10
2022-11-29T07:18:38.955Z,8.08
2022-11-29T07:21:16.212Z,8.06
2022-11-29T07:24:15.684Z,8.04
2022-11-29T07:26:55.132Z,8.04
2022-11-29T07:29:33.441Z,8.03
2022-11-29T07:32:27.774Z,8.02
2022-11-29T07:35:01.757Z,8.00
2022-11-29T07:37:54.264Z,8.00
2022-11-29T07:40:59.447Z,8.01
2022-11-29T07:43:34.063Z,8.01
2022-11-29T07:46:00.764Z,8.01
2022-11-29T07:48:27.196Z,8.00
2022-11-29T07:50:55.911Z,8.00
2022-11-29T07:53:23.496Z,7.99
2022-11-29T07:55:50.370Z,7.94
2022-11-29T07:58:17.881Z,7.90
2022-11-29T08:00:44.704Z,7.89
2022-11-29T08:03:11.522Z,7.89
2022-11-29T08:05:38.470Z,7.88
2022-11-29T08:08:05.615Z,7.89
2022-11-29T08:10:32.060Z,7.86
2022-11-29T08:12:58.520Z,7.84
2022-11-29T08:15:25.780Z,7.81
2022-11-29T08:17:53.045Z,7.78
2022-11-29T08:20:19.638Z,7.76
2022-11-29T08:22:53.641Z,7.76
2022-11-29T08:25:19.991Z,7.78
2022-11-29T08:27:46.372Z,7.79
2022-11-29T08:30:13.102Z,7.78
2022-11-29T08:32:45.849Z,7.80
2022-11-29T08:35:15.792Z,7.80
2022-11-29T08:37:42.143Z,7.84
2022-11-29T08:40:08.945Z,7.87
2022-11-29T08:42:35.312Z,7.89
2022-11-29T08:45:01.738Z,7.88
2022-11-29T08:47:37.135Z,7.84
2022-11-29T08:50:10.080Z,7.81
2022-11-29T08:52:57.799Z,7.72
2022-11-29T08:55:27.042Z,7.75
2022-11-29T08:57:59.741Z,7.79
2022-11-29T09:00:26.122Z,7.80
2022-11-29T09:02:52.565Z,7.81
2022-11-29T09:05:19.193Z,7.77
2022-11-29T09:07:46.903Z,7.71
2022-11-29T09:10:13.335Z,7.68
2022-11-29T09:12:40.213Z,7.65
2022-11-29T09:15:09.596Z,7.66
2022-11-29T09:17:36.174Z,7.61
2022-11-29T09:20:03.873Z,7.61
2022-11-29T09:22:30.236Z,7.57
2022-11-29T09:24:57.219Z,7.57
2022-11-29T09:27:23.593Z,7.59
2022-11-29T09:29:50.013Z,7.57
2022-11-29T09:32:16.453Z,7.59
2022-11-29T09:34:43.172Z,7.59
2022-11-29T09:37:09.714Z,7.60
2022-11-29T09:39:36.180Z,7.59
2022-11-29T09:42:32.866Z,7.60
2022-11-29T09:45:07.048Z,7.64
2022-11-29T09:47:56.410Z,7.63
2022-11-29T09:50:34.781Z,7.62
2022-11-29T09:53:37.804Z,7.64
2022-11-29T09:56:39.130Z,7.66
2022-11-29T09:59:29.053Z,7.65
2022-11-29T10:02:04.492Z,7.65
2022-11-29T10:04:40.874Z,7.67
2022-11-29T10:07:22.112Z,7.69
2022-11-29T10:10:03.520Z,7.71
2022-11-29T10:12:44.199Z,7.72
2022-11-29T10:15:21.645Z,7.76
2022-11-29T10:18:02.810Z,7.78
2022-11-29T10:20:37.850Z,7.81
2022-11-29T10:23:26.581Z,7.88
2022-11-29T10:25:55.680Z,7.93
2022-11-29T10:28:25.738Z,7.99
2022-11-29T10:30:54.439Z,8.03
2022-11-29T10:33:29.735Z,8.06
2022-11-29T10:35:59.075Z,8.08
2022-11-29T10:38:33.027Z,8.11
2022-11-29T10:41:13.713Z,8.16
2022-11-29T10:43:40.380Z,8.23
2022-11-29T10:46:15.502Z,8.23
2022-11-29T10:48:42.288Z,8.24
2022-11-29T10:51:16.960Z,8.32
2022-11-29T10:53:45.052Z,8.39
2022-11-29T10:56:29.451Z,8.46
2022-11-29T10:59:05.333Z,8.51
2022-11-29T11:01:36.941Z,8.55
2022-11-29T11:04:07.265Z,8.55
2022-11-29T11:06:59.878Z,8.58
2022-11-29T11:09:35.350Z,8.57
2022-11-29T11:12:06.041Z,8.55
2022-11-29T11:14:37.364Z,8.55
2022-11-29T11:17:26.256Z,8.57
2022-11-29T11:20:00.801Z,8.59
2022-11-29T11:22:29.168Z,8.60
2022-11-29T11:24:59.493Z,8.62
2022-11-29T11:27:35.424Z,8.61
2022-11-29T11:30:04.416Z,8.58
2022-11-29T11:32:31.380Z,8.54
2022-11-29T11:35:00.578Z,8.59
2022-11-29T11:37:31.262Z,8.63
2022-11-29T11:40:00.902Z,8.66
2022-11-29T11:42:38.543Z,8.70
2022-11-29T11:45:10.865Z,8.72
2022-11-29T11:47:43.905Z,8.75
2022-11-29T11:50:25.903Z,8.78
2022-11-29T11:52:58.618Z,8.80
2022-11-29T11:55:33.397Z,8.85
2022-11-29T11:58:06.193Z,8.94
2022-11-29T12:01:05.514Z,9.06
2022-11-29T12:03:56.774Z,9.22
2022-11-29T12:06:43.579Z,9.28
2022-11-29T12:09:28.532Z,9.33
2022-11-29T12:12:20.076Z,9.38
2022-11-29T12:15:07.043Z,9.40
2022-11-29T12:18:00.937Z,9.44
2022-11-29T12:20:46.515Z,9.49
2022-11-29T12:23:12.875Z,9.52
2022-11-29T12:25:57.666Z,9.56
2022-11-29T12:28:33.754Z,9.57
2022-11-29T12:31:37.488Z,9.59
2022-11-29T12:34:22.626Z,9.63
2022-11-29T12:37:02.289Z,9.68
2022-11-29T12:39:50.463Z,9.69
2022-11-29T12:42:36.046Z,9.67
2022-11-29T12:45:36.412Z,9.67
2022-11-29T12:48:08.933Z,9.69
2022-11-29T12:50:45.138Z,9.70
2022-11-29T12:53:29.310Z,9.72
2022-11-29T12:56:28.119Z,9.72
2022-11-29T12:59:32.786Z,9.74
2022-11-29T13:02:33.472Z,9.76
2022-11-29T13:05:15.662Z,9.75
2022-11-29T13:07:50.313Z,9.76
2022-11-29T13:10:19.892Z,9.78
2022-11-29T13:12:51.987Z,9.79
2022-11-29T13:15:22.135Z,9.79
2022-11-29T13:18:05.622Z,9.81
2022-11-29T13:21:10.553Z,9.82
2022-11-29T13:24:10.550Z,9.82
2022-11-29T13:26:39.951Z,9.82
2022-11-29T13:29:12.521Z,9.81
2022-11-29T13:31:39.675Z,9.81
2022-11-29T13:34:17.418Z,9.78
2022-11-29T13:37:15.294Z,9.78
2022-11-29T13:39:51.271Z,9.78
2022-11-29T13:42:36.416Z,9.79
2022-11-29T13:45:07.470Z,9.77
2022-11-29T13:47:47.677Z,9.74
2022-11-29T13:50:38.956Z,9.77
2022-11-29T13:53:18.041Z,9.72
2022-11-29T13:55:48.029Z,9.74
2022-11-29T13:58:17.819Z,9.75
2022-11-29T14:00:44.708Z,9.74
2022-11-29T14:03:23.421Z,9.76
2022-11-29T14:05:53.559Z,9.75
2022-11-29T14:08:24.377Z,9.75
2022-11-29T14:10:54.625Z,9.72
2022-11-29T14:13:28.584Z,9.70
2022-11-29T14:15:58.646Z,9.70
2022-11-29T14:18:37.267Z,9.71
2022-11-29T14:21:04.651Z,9.70
2022-11-29T14:23:40.570Z,9.70
2022-11-29T14:26:06.929Z,9.69
2022-11-29T14:28:39.933Z,9.71
2022-11-29T14:31:10.478Z,9.72
2022-11-29T14:34:03.881Z,9.70
2022-11-29T14:36:54.264Z,9.70
2022-11-29T14:39:31.519Z,9.69
2022-11-29T14:42:17.050Z,9.70
2022-11-29T14:44:48.308Z,9.68
2022-11-29T14:47:34.670Z,9.67
2022-11-29T14:50:06.466Z,9.68
2022-11-29T14:52:39.618Z,9.66
2022-11-29T14:55:30.508Z,9.64
2022-11-29T14:58:05.551Z,9.63
2022-11-29T15:00:47.305Z,9.59
2022-11-29T15:03:16.889Z,9.57
2022-11-29T15:05:46.907Z,9.54
2022-11-29T15:08:18.986Z,9.54
2022-11-29T15:10:51.603Z,9.51
2022-11-29T15:13:26.966Z,9.50
2022-11-29T15:16:12.819Z,9.48
2022-11-29T15:19:15.744Z,9.45
2022-11-29T15:21:54.642Z,9.40
2022-11-29T15:24:28.042Z,9.36
2022-11-29T15:27:00.348Z,9.32
2022-11-29T15:29:28.516Z,9.29
2022-11-29T15:31:57.896Z,9.25
2022-11-29T15:34:40.718Z,9.24
2022-11-29T15:37:20.618Z,9.20
2022-11-29T15:39:46.994Z,9.15
2022-11-29T15:42:15.678Z,9.13
2022-11-29T15:44:46.669Z,9.10
2022-11-29T15:47:24.711Z,9.09
2022-11-29T15:49:53.001Z,9.05
2022-11-29T15:52:36.289Z,9.04
2022-11-29T15:55:11.564Z,9.03
2022-11-29T15:57:42.757Z,8.99
2022-11-29T16:00:17.334Z,8.97
2022-11-29T16:02:52.344Z,8.96
2022-11-29T16:05:30.224Z,8.95
2022-11-29T16:08:04.595Z,8.94
2022-11-29T16:10:50.325Z,8.94
2022-11-29T16:13:25.498Z,8.93
2022-11-29T16:16:04.708Z,8.90
2022-11-29T16:18:31.324Z,8.92
2022-11-29T16:21:04.366Z,8.94
2022-11-29T16:23:42.168Z,8.96
2022-11-29T16:26:16.639Z,8.98
2022-11-29T16:28:49.124Z,8.98
2022-11-29T16:31:24.761Z,8.97
2022-11-29T16:33:52.591Z,8.98
2022-11-29T16:36:23.701Z,8.98
2022-11-29T16:38:54.171Z,8.99
2022-11-29T16:41:37.838Z,9.02
2022-11-29T16:44:05.999Z,9.03
2022-11-29T16:46:41.464Z,9.05
2022-11-29T16:49:35.373Z,9.04
2022-11-29T16:52:03.916Z,9.04
2022-11-29T16:54:35.246Z,9.04
2022-11-29T16:57:05.153Z,9.05
2022-11-29T16:59:32.428Z,9.06
2022-11-29T17:01:59.401Z,9.09
2022-11-29T17:04:26.434Z,9.10
2022-11-29T17:06:54.788Z,9.12
2022-11-29T17:09:27.357Z,9.13
2022-11-29T17:11:55.070Z,9.12
2022-11-29T17:14:21.618Z,9.12
2022-11-29T17:16:49.622Z,9.15
2022-11-29T17:19:16.613Z,9.15
2022-11-29T17:21:43.439Z,9.15
2022-11-29T17:24:13.316Z,9.15
2022-11-29T17:26:40.947Z,9.15
2022-11-29T17:29:07.766Z,9.15
2022-11-29T17:31:34.194Z,9.15
2022-11-29T17:34:00.771Z,9.16
2022-11-29T17:36:27.281Z,9.15
2022-11-29T17:38:56.119Z,9.15
2022-11-29T17:41:24.417Z,9.14
2022-11-29T17:43:52.252Z,9.14
2022-11-29T17:46:27.615Z,9.16
2022-11-29T17:48:54.458Z,9.18
2022-11-29T17:51:50.703Z,9.18
2022-11-29T17:54:10.710Z,9.17
2022-11-29T17:56:37.133Z,9.17
2022-11-29T17:59:04.717Z,9.18
2022-11-29T18:01:33.570Z,9.18
2022-11-29T18:04:02.177Z,9.16
2022-11-29T18:06:40.092Z,9.16
2022-11-29T18:09:09.143Z,9.15
2022-11-29T18:11:46.427Z,9.15
2022-11-29T18:14:16.570Z,9.13
2022-11-29T18:16:44.887Z,9.12
2022-11-29T18:19:13.811Z,9.12
2022-11-29T18:21:40.249Z,9.11
2022-11-29T18:24:07.793Z,9.12
2022-11-29T18:26:36.218Z,9.13
2022-11-29T18:29:03.818Z,9.12
2022-11-29T18:31:33.108Z,9.13
2022-11-29T18:34:02.060Z,9.16
2022-11-29T18:36:31.010Z,9.18
2022-11-29T18:39:03.658Z,9.21
2022-11-29T18:41:31.150Z,9.21
2022-11-29T18:44:00.634Z,9.22
2022-11-29T18:46:32.185Z,9.21
2022-11-29T18:49:00.546Z,9.25
2022-11-29T18:51:28.127Z,9.26
2022-11-29T18:53:54.763Z,9.28
2022-11-29T18:56:22.883Z,9.28
2022-11-29T18:58:58.513Z,9.29
2022-11-29T19:01:27.695Z,9.30
2022-11-29T19:03:56.592Z,9.29
2022-11-29T19:06:25.183Z,9.29
2022-11-29T19:08:52.823Z,9.30
2022-11-29T19:11:22.503Z,9.31
2022-11-29T19:13:53.587Z,9.32
2022-11-29T19:16:20.151Z,9.29
2022-11-29T19:18:50.774Z,9.31
2022-11-29T19:21:18.343Z,9.30
2022-11-29T19:23:45.264Z,9.30
2022-11-29T19:26:13.655Z,9.30
2022-11-29T19:28:44.935Z,9.28
2022-11-29T19:31:13.823Z,9.25
2022-11-29T19:33:41.983Z,9.24
2022-11-29T19:36:12.385Z,9.25
2022-11-29T19:38:39.762Z,9.25
2022-11-29T19:41:11.472Z,9.27
2022-11-29T19:43:38.648Z,9.26
2022-11-29T19:46:13.743Z,9.26
2022-11-29T19:48:40.446Z,9.27
2022-11-29T19:51:07.931Z,9.27
2022-11-29T19:53:35.306Z,9.30
2022-11-29T19:56:06.199Z,9.29
2022-11-29T19:58:32.808Z,9.32
2022-11-29T20:01:11.073Z,9.33
2022-11-29T20:03:38.430Z,9.34
2022-11-29T20:06:05.096Z,9.36
2022-11-29T20:08:32.343Z,9.35
2022-11-29T20:11:09.896Z,9.36
2022-11-29T20:13:38.082Z,9.36
2022-11-29T20:16:08.783Z,9.37
2022-11-29T20:18:36.969Z,9.38
2022-11-29T20:21:11.763Z,9.39
2022-11-29T20:23:39.796Z,9.40
2022-11-29T20:26:08.099Z,9.41
2022-11-29T20:28:35.383Z,9.41
2022-11-29T20:31:17.458Z,9.44
2022-11-29T20:33:45.760Z,9.44
2022-11-29T20:36:20.924Z,9.43
2022-11-29T20:38:58.017Z,9.41
2022-11-29T20:41:45.417Z,9.42
2022-11-29T20:44:19.431Z,9.45
2022-11-29T20:46:45.982Z,9.44
2022-11-29T20:49:17.184Z,9.44
2022-11-29T20:51:53.768Z,9.46
2022-11-29T20:54:20.237Z,9.46
2022-11-29T20:56:46.652Z,9.46
2022-11-29T20:59:13.171Z,9.46
2022-11-29T21:01:39.582Z,9.45
2022-11-29T21:04:06.108Z,9.44
2022-11-29T21:06:37.101Z,9.46
2022-11-29T21:09:03.742Z,9.46
2022-11-29T21:11:30.312Z,9.46
2022-11-29T21:13:56.941Z,9.47
2022-11-29T21:16:31.367Z,9.45
2022-11-29T21:19:01.616Z,9.46
2022-11-29T21:21:35.014Z,9.47
2022-11-29T21:24:39.370Z,9.49
2022-11-29T21:27:06.790Z,9.47
2022-11-29T21:29:33.462Z,9.47
2022-11-29T21:32:01.940Z,9.48
2022-11-29T21:34:28.548Z,9.49
2022-11-29T21:36:58.260Z,9.50
2022-11-29T21:39:33.268Z,9.51
2022-11-29T21:41:59.875Z,9.48
2022-11-29T21:44:26.331Z,9.47
2022-11-29T21:46:52.792Z,9.48
2022-11-29T21:49:19.271Z,9.50
2022-11-29T21:51:45.658Z,9.50
2022-11-29T21:54:12.020Z,9.50
2022-11-29T21:56:38.365Z,9.48
2022-11-29T21:59:05.685Z,9.47
2022-11-29T22:01:33.668Z,9.46
2022-11-29T22:04:00.313Z,9.45
2022-11-29T22:06:28.177Z,9.46
2022-11-29T22:08:54.747Z,9.46
2022-11-29T22:11:33.919Z,9.46
2022-11-29T22:14:15.835Z,9.47
2022-11-29T22:16:55.576Z,9.47
2022-11-29T22:19:24.369Z,9.47
2022-11-29T22:21:57.461Z,9.49
2022-11-29T22:24:26.480Z,9.51
2022-11-29T22:26:53.951Z,9.51
2022-11-29T22:29:21.017Z,9.51
2022-11-29T22:31:50.879Z,9.49
2022-11-29T22:34:17.339Z,9.48
2022-11-29T22:36:43.697Z,9.49
2022-11-29T22:39:10.406Z,9.49
2022-11-29T22:41:38.231Z,9.51
2022-11-29T22:44:04.810Z,9.52
2022-11-29T22:46:32.039Z,9.49
2022-11-29T22:49:00.313Z,9.35
2022-11-29T22:51:30.530Z,9.32
2022-11-29T22:53:58.948Z,9.25
2022-11-29T22:56:28.163Z,9.18
2022-11-29T22:58:55.326Z,9.15
2022-11-29T23:01:24.043Z,9.19
2022-11-29T23:03:53.771Z,9.23
2022-11-29T23:06:31.674Z,9.20
2022-11-29T23:09:03.836Z,9.19
2022-11-29T23:11:30.613Z,9.16
2022-11-29T23:13:57.288Z,9.08
2022-11-29T23:16:26.623Z,9.05
2022-11-29T23:19:10.067Z,9.05
2022-11-29T23:21:38.540Z,9.04
2022-11-29T23:24:05.084Z,9.02
2022-11-29T23:26:38.748Z,8.99
2022-11-29T23:29:07.372Z,8.98
2022-11-29T23:31:33.921Z,8.96
2022-11-29T23:34:01.709Z,8.94
2022-11-29T23:36:28.140Z,8.97
2022-11-29T23:38:54.540Z,8.90
2022-11-29T23:41:21.223Z,8.84
2022-11-29T23:43:47.596Z,8.86
2022-11-29T23:46:17.396Z,8.89
2022-11-29T23:48:44.331Z,8.91
2022-11-29T23:51:11.760Z,8.96
2022-11-29T23:53:38.432Z,8.98
2022-11-29T23:56:11.539Z,9.00
2022-11-29T23:58:38.354Z,9.01
